Shantou, Guangdong

2:53 AM CST on January 27, 2015 (GMT +0800)
Shantou | Change Station
CLOSE
Current Station
Airport
Location: Shantou,
Elevation: 10 ft
Nearby Weather Stations

Elev 10 ft 23.55 °N, 116.51 °E | Updated 53 minutes ago

Mostly Cloudy
Mostly Cloudy
61 °F
Feels Like 61 °F
N
4
Wind Variable Wind from East

Today
High -- | Low -- °F
--% Chance of Precip.
Yesterday
High -- | Low -- °F
Precip. -- in
6:55 AM 5:56 PM
Waxing Crescent, 45% visible
Pressure 30.09 in
Visibility 2.5 miles
Clouds Scattered Clouds 1300 ft
Mostly Cloudy 2300 ft
Dew Point 59 °F
Humidity 94%
Rainfall 0.00 in
Snow Depth Not available.
UV 0 out of 12
Pollen Not available.
Air Quality Not available.
Flu Activity Not available.
METAR ZGOW 261800Z 10002MPS 4000 BR SCT013 BKN023 16/15 Q1019 NOSIG

More Conditions Fewer Conditions

Pressure 30.09 in
Visibility 2.5 miles
Clouds Scattered Clouds 1300 ft
Mostly Cloudy 2300 ft
Dew Point 59 °F
Humidity 94%
Rainfall 0.00 in
Snow Depth Not available.
UV 0 out of 12
Pollen Not available.
Air Quality Not available.
Flu Activity Not available.
METAR ZGOW 261800Z 10002MPS 4000 BR SCT013 BKN023 16/15 Q1019 NOSIG

More Conditions Fewer Conditions

10-Day Weather Forecast

Almanac

Astronomy

Jan. 27, 2015 Rise Set
Actual Time
Civil Twilight
Nautical Twilight
Astronomical Twilight
Moon
Length of Visible Light
Length of Day
Tomorrow will be .
, % of the Moon is Illuminated

Today's Extremes

Country Highs Country Lows

Community

WunderPhotos

Upload Photos

1,790,312 photos uploaded!

WunderBlogs® & News

Nearby

Air Quality

  Air Quality AQ Index Pollutant
Not available.

Snow Depth

Station Depth Elevation

Earthquake Activity

City Distance Mag. Time & Date
Minimum magnitude displayed is 2.5.

Coastal Water Temperatures

Place Temperature

Nearby Weather Stations